Time;durP1;ratioP1;P1;durP2;ratioP2;P2;SDS_P1;SDS_P2;PMS_P1;PMS_P2;Temp;Humidity;BMP_temperature;BMP_pressure;BME280_temperature;BME280_humidity;BME280_pressure;Samples;Min_cycle;Max_cycle;Signal;HPM_P1;HPM_P2
2022/03/09 00:00:40;;;;;;;6.05;2.38;;;;;;;;;;10444743;28;20075;-73
2022/03/09 00:05:42;;;;;;;5.05;2.20;;;;;;;;;;10449405;28;20098;-72
2022/03/09 00:10:43;;;;;;;5.15;2.15;;;;;;;;;;10449377;28;20056;-72
2022/03/09 00:15:45;;;;;;;13.60;2.17;;;;;;;;;;10449314;28;20044;-71
2022/03/09 00:20:46;;;;;;;4.97;2.10;;;;;;;;;;10450148;28;20132;-71
2022/03/09 00:25:48;;;;;;;5.80;1.90;;;;;;;;;;10444673;28;20538;-73
2022/03/09 00:30:49;;;;;;;5.95;2.17;;;;;;;;;;10443434;28;20045;-72
2022/03/09 00:35:50;;;;;;;5.35;2.00;;;;;;;;;;10444288;28;20051;-72
2022/03/09 00:40:52;;;;;;;8.48;2.40;;;;;;;;;;10442903;28;20639;-73
2022/03/09 00:45:53;;;;;;;5.25;1.85;;;;;;;;;;10445418;28;20515;-72
2022/03/09 00:50:55;;;;;;;7.25;1.65;;;;;;;;;;10445247;28;20832;-72
2022/03/09 00:55:56;;;;;;;8.18;2.45;;;;;;;;;;10442227;28;20584;-72
2022/03/09 01:00:57;;;;;;;8.85;2.42;;;;;;;;;;10448683;28;20049;-72
2022/03/09 01:05:59;;;;;;;4.97;2.00;;;;;;;;;;10441869;28;20064;-72
2022/03/09 01:11:01;;;;;;;3.42;1.65;;;;;;;;;;10441761;28;20045;-72
2022/03/09 01:16:03;;;;;;;5.22;2.00;;;;;;;;;;10441715;28;20035;-72
2022/03/09 01:21:05;;;;;;;4.82;2.22;;;;;;;;;;10441182;28;20041;-72
2022/03/09 01:26:06;;;;;;;5.53;2.25;;;;;;;;;;10441710;28;20400;-72
2022/03/09 01:31:09;;;;;;;6.57;2.00;;;;;;;;;;10439714;28;20045;-72
2022/03/09 01:36:11;;;;;;;10.18;2.42;;;;;;;;;;10441154;28;20052;-72
2022/03/09 01:41:13;;;;;;;5.43;2.13;;;;;;;;;;10446168;28;20416;-72
2022/03/09 01:46:14;;;;;;;3.58;1.90;;;;;;;;;;10441005;28;20478;-72
2022/03/09 01:51:16;;;;;;;4.45;2.03;;;;;;;;;;10440654;28;20063;-72
2022/03/09 01:56:18;;;;;;;6.85;2.30;;;;;;;;;;10441933;28;20049;-73
2022/03/09 02:01:19;;;;;;;8.73;1.92;;;;;;;;;;10451042;28;20045;-72
2022/03/09 02:06:21;;;;;;;5.50;2.00;;;;;;;;;;10439142;28;20060;-73
2022/03/09 02:11:24;;;;;;;6.82;2.13;;;;;;;;;;10439141;28;20045;-71
2022/03/09 02:16:25;;;;;;;5.45;1.80;;;;;;;;;;10438428;28;20055;-72
2022/03/09 02:21:27;;;;;;;6.32;2.08;;;;;;;;;;10439140;28;20049;-72
2022/03/09 02:26:29;;;;;;;3.22;1.60;;;;;;;;;;10439359;28;20039;-72
2022/03/09 02:31:31;;;;;;;4.85;2.00;;;;;;;;;;10451265;28;20041;-71
2022/03/09 02:36:32;;;;;;;6.13;1.92;;;;;;;;;;10439100;28;20098;-72
2022/03/09 02:41:34;;;;;;;6.50;2.22;;;;;;;;;;10439174;28;20640;-71
2022/03/09 02:46:36;;;;;;;4.80;2.28;;;;;;;;;;10446995;28;20049;-72
2022/03/09 02:51:37;;;;;;;6.82;2.15;;;;;;;;;;10446687;28;20071;-72
2022/03/09 02:56:39;;;;;;;6.75;2.58;;;;;;;;;;10446748;28;20049;-73
2022/03/09 03:01:40;;;;;;;8.40;2.28;;;;;;;;;;10453546;28;20041;-71
2022/03/09 03:06:42;;;;;;;6.25;2.35;;;;;;;;;;10458540;28;20506;-72
2022/03/09 03:11:43;;;;;;;5.85;2.20;;;;;;;;;;10449225;28;20497;-71
2022/03/09 03:16:45;;;;;;;6.00;2.40;;;;;;;;;;10450370;28;20130;-71
2022/03/09 03:21:46;;;;;;;6.95;2.67;;;;;;;;;;10445313;28;20135;-71
2022/03/09 03:26:48;;;;;;;6.00;2.58;;;;;;;;;;10452236;28;20579;-71
2022/03/09 03:31:49;;;;;;;6.80;2.33;;;;;;;;;;10443102;28;20041;-71
2022/03/09 03:36:53;;;;;;;7.57;2.45;;;;;;;;;;10450769;28;20135;-71
2022/03/09 03:41:54;;;;;;;9.48;2.55;;;;;;;;;;10444908;28;20049;-71
2022/03/09 03:46:56;;;;;;;7.05;2.72;;;;;;;;;;10449516;28;20103;-71
2022/03/09 03:51:57;;;;;;;8.25;2.60;;;;;;;;;;10444070;28;20055;-71
2022/03/09 03:56:59;;;;;;;6.25;2.60;;;;;;;;;;10447328;28;20915;-72
2022/03/09 04:02:00;;;;;;;6.90;2.88;;;;;;;;;;10447975;28;20412;-71
2022/03/09 04:07:02;;;;;;;7.18;2.25;;;;;;;;;;10443499;28;20122;-71
2022/03/09 04:12:04;;;;;;;6.30;2.53;;;;;;;;;;10450485;28;20051;-71
2022/03/09 04:17:05;;;;;;;9.35;3.03;;;;;;;;;;10449432;28;20053;-71
2022/03/09 04:22:07;;;;;;;8.00;2.60;;;;;;;;;;10449654;28;20406;-71
2022/03/09 04:27:10;;;;;;;6.40;2.33;;;;;;;;;;10476229;28;20055;-71
2022/03/09 04:32:11;;;;;;;6.72;2.67;;;;;;;;;;10463254;28;20435;-70
2022/03/09 04:37:12;;;;;;;7.55;2.33;;;;;;;;;;10449460;28;20075;-71
2022/03/09 04:42:14;;;;;;;6.57;3.17;;;;;;;;;;10455815;28;20243;-71
2022/03/09 04:47:16;;;;;;;6.68;2.58;;;;;;;;;;10455301;28;20099;-70
2022/03/09 04:52:18;;;;;;;7.15;2.40;;;;;;;;;;10444107;28;20045;-71
2022/03/09 04:57:19;;;;;;;8.82;2.83;;;;;;;;;;10441572;28;20526;-70
2022/03/09 05:02:20;;;;;;;8.10;2.65;;;;;;;;;;10440756;28;20095;-70
2022/03/09 05:07:22;;;;;;;6.82;2.30;;;;;;;;;;10440102;28;20057;-69
2022/03/09 05:12:24;;;;;;;5.97;2.45;;;;;;;;;;10440833;28;20558;-70
2022/03/09 05:17:25;;;;;;;7.97;3.10;;;;;;;;;;10440822;28;20057;-70
2022/03/09 05:22:26;;;;;;;5.88;2.60;;;;;;;;;;10440305;28;20049;-70
2022/03/09 05:27:28;;;;;;;5.95;2.33;;;;;;;;;;10440929;28;20155;-70
2022/03/09 05:32:29;;;;;;;8.30;2.80;;;;;;;;;;10446202;28;20041;-70
2022/03/09 05:37:41;;;;;;;5.82;2.35;;;;;;;;;;10440813;28;20072;-69
2022/03/09 05:42:43;;;;;;;6.35;2.53;;;;;;;;;;10439972;28;20049;-69
2022/03/09 05:47:52;;;;;;;7.53;3.13;;;;;;;;;;10445222;28;20060;-69
2022/03/09 05:52:53;;;;;;;6.05;2.63;;;;;;;;;;10446566;28;20041;-69
2022/03/09 05:57:54;;;;;;;8.70;2.67;;;;;;;;;;10438948;28;20057;-69
2022/03/09 06:02:57;;;;;;;9.45;2.90;;;;;;;;;;10445540;28;20052;-69
2022/03/09 06:07:59;;;;;;;6.05;2.55;;;;;;;;;;10438318;28;20106;-69
2022/03/09 06:13:00;;;;;;;6.57;2.75;;;;;;;;;;10445214;28;20041;-68
2022/03/09 06:18:01;;;;;;;7.32;2.72;;;;;;;;;;10446132;28;20131;-68
2022/03/09 06:23:04;;;;;;;8.93;2.80;;;;;;;;;;10441106;28;20786;-69
2022/03/09 06:28:05;;;;;;;6.82;2.70;;;;;;;;;;10448879;28;20106;-71
2022/03/09 06:33:07;;;;;;;9.23;3.03;;;;;;;;;;10437662;28;20045;-69
2022/03/09 06:38:08;;;;;;;7.30;2.80;;;;;;;;;;10438397;28;20052;-68
2022/03/09 06:43:10;;;;;;;7.72;2.75;;;;;;;;;;10437101;28;20055;-69
2022/03/09 06:48:12;;;;;;;9.68;2.83;;;;;;;;;;10437974;28;20041;-68
2022/03/09 06:53:13;;;;;;;8.05;3.45;;;;;;;;;;10447576;28;20093;-70
2022/03/09 06:58:14;;;;;;;10.52;3.67;;;;;;;;;;10443474;28;20064;-69
2022/03/09 07:03:16;;;;;;;9.38;3.05;;;;;;;;;;10438635;28;20550;-69
2022/03/09 07:08:18;;;;;;;17.55;3.45;;;;;;;;;;10450867;28;20065;-70
2022/03/09 07:13:19;;;;;;;9.43;3.05;;;;;;;;;;10438118;28;20103;-70
2022/03/09 07:18:20;;;;;;;8.05;3.17;;;;;;;;;;10437340;28;20059;-71
2022/03/09 07:23:22;;;;;;;6.20;2.67;;;;;;;;;;10437476;28;20796;-72
2022/03/09 07:28:23;;;;;;;9.07;2.85;;;;;;;;;;10457977;28;20047;-72
2022/03/09 07:33:25;;;;;;;7.80;3.17;;;;;;;;;;10456008;28;20058;-72
2022/03/09 07:38:26;;;;;;;8.27;3.53;;;;;;;;;;10454858;28;20045;-72
2022/03/09 07:43:28;;;;;;;9.15;3.58;;;;;;;;;;10455714;28;20048;-72
2022/03/09 07:48:31;;;;;;;7.35;2.92;;;;;;;;;;10452700;28;20053;-72
2022/03/09 07:53:35;;;;;;;8.95;3.65;;;;;;;;;;10447186;28;20061;-72
2022/03/09 07:58:37;;;;;;;7.78;3.72;;;;;;;;;;10444103;28;20099;-73
2022/03/09 08:03:39;;;;;;;7.57;3.55;;;;;;;;;;10441987;28;20519;-73
2022/03/09 08:08:43;;;;;;;14.65;3.90;;;;;;;;;;10442035;28;20087;-73
2022/03/09 08:13:45;;;;;;;12.80;4.20;;;;;;;;;;10453450;28;20102;-73
2022/03/09 08:18:46;;;;;;;14.50;4.32;;;;;;;;;;10455976;28;20056;-73
2022/03/09 08:23:47;;;;;;;9.88;4.03;;;;;;;;;;10442329;28;20045;-74
2022/03/09 08:28:49;;;;;;;11.52;4.25;;;;;;;;;;10449259;28;20127;-73
2022/03/09 08:33:50;;;;;;;11.10;4.63;;;;;;;;;;10456031;28;20044;-74
2022/03/09 08:38:52;;;;;;;11.32;4.13;;;;;;;;;;10448646;28;20056;-73
2022/03/09 08:43:53;;;;;;;13.20;3.63;;;;;;;;;;10442948;28;20045;-74
2022/03/09 08:48:55;;;;;;;10.90;3.85;;;;;;;;;;10445972;28;20056;-73
2022/03/09 08:53:57;;;;;;;8.90;3.75;;;;;;;;;;10445730;28;20591;-73
2022/03/09 08:58:59;;;;;;;8.52;4.10;;;;;;;;;;10447555;28;20049;-73
2022/03/09 09:04:01;;;;;;;8.93;4.07;;;;;;;;;;10445592;28;20597;-74
2022/03/09 09:09:02;;;;;;;10.80;4.30;;;;;;;;;;10444861;28;20530;-74
2022/03/09 09:14:04;;;;;;;10.65;4.22;;;;;;;;;;10446868;28;20051;-73
2022/03/09 09:19:05;;;;;;;13.43;4.10;;;;;;;;;;10453430;28;20052;-74
2022/03/09 09:24:07;;;;;;;10.40;4.43;;;;;;;;;;10458845;28;20044;-74
2022/03/09 09:29:09;;;;;;;9.07;4.15;;;;;;;;;;10467829;28;20048;-74
2022/03/09 09:34:10;;;;;;;9.40;3.47;;;;;;;;;;10468147;28;20095;-74
2022/03/09 09:39:13;;;;;;;8.98;4.15;;;;;;;;;;10463785;28;20077;-74
2022/03/09 09:44:15;;;;;;;8.63;4.03;;;;;;;;;;10471779;27;20076;-74
2022/03/09 09:49:17;;;;;;;8.55;3.55;;;;;;;;;;10444534;28;20140;-74
2022/03/09 09:54:19;;;;;;;7.75;3.33;;;;;;;;;;10437842;28;20041;-74
2022/03/09 09:59:20;;;;;;;8.13;3.35;;;;;;;;;;10445998;28;20049;-74
2022/03/09 10:04:21;;;;;;;8.32;3.53;;;;;;;;;;10443450;28;20041;-74
2022/03/09 10:09:23;;;;;;;11.73;4.18;;;;;;;;;;10437789;28;20045;-74
2022/03/09 10:15:00;;;;;;;8.45;3.53;;;;;;;;;;10437589;28;20041;-75
2022/03/09 10:20:08;;;;;;;6.15;3.00;;;;;;;;;;10405448;28;20135;-75
2022/03/09 10:25:10;;;;;;;9.68;3.58;;;;;;;;;;10438392;28;20080;-77
2022/03/09 10:30:14;;;;;;;8.52;3.50;;;;;;;12.34;nan;102422.47;10443606;28;20053;-76
2022/03/09 10:35:19;;;;;;;8.10;3.05;;;;;;;12.41;nan;102444.59;10437506;28;20052;-77
2022/03/09 10:40:26;;;;;;;8.00;3.33;;;;;;;12.19;nan;102354.56;10449210;28;20408;-77
2022/03/09 10:45:28;;;;;;;8.25;3.40;;;;;;;12.00;nan;102269.84;10450483;28;20041;-78
2022/03/09 10:50:32;;;;;;;9.43;3.65;;;;;;;12.07;nan;102302.50;10454603;28;20662;-78
2022/03/09 10:55:36;;;;;;;7.43;3.10;;;;;;;12.62;nan;102531.19;10448568;28;20048;-77
2022/03/09 11:00:44;;;;;;;7.82;2.97;;;;;;;12.33;nan;102407.56;10452232;28;20059;-77
2022/03/09 11:06:06;;;;;;;7.13;3.60;;;;;;;12.23;nan;102364.28;10451341;28;20067;-77
2022/03/09 11:11:10;;;;;;;8.35;3.28;;;;;;;11.96;nan;102244.34;10472396;28;20044;-73
2022/03/09 11:16:11;;;;;;;6.03;2.70;;;;;;;12.10;nan;102301.69;10458020;28;20072;-75
2022/03/09 11:21:14;;;;;;;7.30;3.15;;;;;;;12.14;nan;102314.97;10471665;28;20053;-74
2022/03/09 11:26:27;;;;;;;6.45;2.70;;;;;;;12.49;nan;102458.91;10450605;28;20079;-76
2022/03/09 11:32:06;;;;;;;9.00;3.30;;;;;;;12.51;nan;102463.38;10443949;28;20845;-75
2022/03/09 11:37:18;;;;;;;6.57;2.97;;;;;;;12.73;nan;102556.16;10442632;28;20075;-74
2022/03/09 11:42:19;;;;;;;8.43;3.08;;;;;;;12.93;nan;102625.22;10444233;28;20565;-75
2022/03/09 11:47:25;;;;;;;7.53;3.60;;;;;;;12.75;nan;102540.44;10456076;28;20069;-75
2022/03/09 11:52:31;;;;;;;8.80;3.17;;;;;;;12.88;nan;102597.84;10449500;28;20068;-74
2022/03/09 11:57:48;;;;;;;7.47;3.10;;;;;;;12.66;nan;102501.56;10458238;28;20067;-76
2022/03/09 12:02:54;;;;;;;9.73;3.50;;;;;;;12.48;nan;102430.84;10451584;27;20496;-75
2022/03/09 12:07:59;;;;;;;9.55;3.33;;;;;;;12.80;nan;102550.25;10446067;28;20059;-76
2022/03/09 12:13:15;;;;;;;8.80;3.65;;;;;;;13.10;nan;102670.53;10456916;28;20051;-76
2022/03/09 12:18:33;;;;;;;8.07;3.00;;;;;;;12.85;nan;102563.56;10460052;28;20049;-75
2022/03/09 12:24:02;;;;;;;6.70;3.17;;;;;;;12.78;nan;102536.16;10440435;28;20102;-76
2022/03/09 12:29:30;;;;;;;7.22;2.85;;;;;;;12.65;nan;102481.38;10441822;28;20087;-75
2022/03/09 12:34:35;;;;;;;9.98;3.58;;;;;;;12.57;nan;102446.06;10452981;28;20518;-75
2022/03/09 12:39:37;;;;;;;6.40;2.83;;;;;;;12.38;nan;102362.22;10441312;28;20053;-76
2022/03/09 12:44:39;;;;;;;9.27;3.42;;;;;;;12.42;nan;102376.34;10455017;28;20052;-76
2022/03/09 12:49:43;;;;;;;7.00;3.00;;;;;;;12.42;nan;102378.09;10454497;28;20050;-74
2022/03/09 12:54:52;;;;;;;8.75;4.00;;;;;;;12.87;nan;102538.22;10452283;28;20048;-74
2022/03/09 13:00:16;;;;;;;6.68;2.70;;;;;;;12.96;nan;102574.50;10440533;28;20091;-73
2022/03/09 13:05:20;;;;;;;6.85;2.95;;;;;;;12.94;nan;102569.16;10428882;28;20050;-74
2022/03/09 13:10:24;;;;;;;6.78;2.72;;;;;;;12.95;nan;102567.44;10442136;28;20133;-73
2022/03/09 13:15:37;;;;;;;7.13;2.88;;;;;;;12.91;nan;102553.28;10443072;28;20488;-74
2022/03/09 13:20:42;;;;;;;8.02;3.20;;;;;;;13.04;nan;102596.69;10448921;28;20051;-74
2022/03/09 13:25:44;;;;;;;6.57;2.80;;;;;;;12.94;nan;102549.84;10462024;28;20040;-74
2022/03/09 13:30:52;;;;;;;6.30;2.60;;;;;;;13.00;nan;102573.72;10448669;28;20044;-72
2022/03/09 13:35:57;;;;;;;7.25;2.47;;;;;;;13.13;nan;102623.28;10454668;28;20053;-74
2022/03/09 13:41:05;;;;;;;7.78;2.78;;;;;;;12.98;nan;102559.66;10452368;28;20055;-76
2022/03/09 13:46:18;;;;;;;7.20;3.13;;;;;;;13.07;nan;102586.25;10477843;28;20060;-75
2022/03/09 13:51:31;;;;;;;7.50;3.08;;;;;;;13.05;nan;102573.06;10474838;28;20041;-75
2022/03/09 13:56:34;;;;;;;6.30;3.05;;;;;;;12.91;nan;102522.63;10460928;28;20657;-75
2022/03/09 14:01:36;;;;;;;8.20;3.25;;;;;;;12.92;nan;102518.25;10453238;28;20036;-74
2022/03/09 14:06:38;;;;;;;8.32;3.80;;;;;;;12.90;nan;102504.16;10466585;28;20033;-75
2022/03/09 14:11:40;;;;;;;12.20;3.90;;;;;;;12.88;nan;102493.59;10460514;28;20055;-74
2022/03/09 14:16:44;;;;;;;8.75;3.40;;;;;;;12.65;nan;102407.78;10456650;28;20558;-72
2022/03/09 14:21:48;;;;;;;8.98;3.67;;;;;;;12.55;nan;102349.66;10472833;28;20075;-72
2022/03/09 14:26:52;;;;;;;7.70;3.58;;;;;;;12.51;nan;102328.50;10466082;28;20040;-69
2022/03/09 14:31:54;;;;;;;9.90;3.72;;;;;;;12.40;nan;102291.34;10464857;28;20045;-73
2022/03/09 14:36:57;;;;;;;10.90;3.63;;;;;;;12.36;nan;102268.44;10460143;28;20051;-72
2022/03/09 14:41:59;;;;;;;8.63;3.95;;;;;;;12.40;nan;102286.09;10445913;28;20041;-72
2022/03/09 14:47:01;;;;;;;8.30;4.03;;;;;;;12.34;nan;102256.97;10451873;28;20120;-71
2022/03/09 14:52:03;;;;;;;8.10;3.50;;;;;;;12.30;nan;102236.72;10451588;28;20423;-72
2022/03/09 14:57:05;;;;;;;8.23;3.50;;;;;;;12.32;nan;102237.66;10445983;28;20048;-71
2022/03/09 15:04:21;;;;;;;8.20;3.65;;;;;;;12.18;53.38;102180.31;10540159;27;20186;-71
2022/03/09 15:09:25;;;;;;;9.65;3.80;;;;;;;12.24;53.14;102200.66;10539050;28;20058;-71
2022/03/09 15:14:27;;;;;;;7.53;3.35;;;;;;;12.19;53.07;102182.13;10530604;27;20573;-73
2022/03/09 15:19:29;;;;;;;11.10;4.40;;;;;;;12.20;52.81;102178.66;10538585;28;20052;-70
2022/03/09 15:24:31;;;;;;;8.50;3.85;;;;;;;12.17;52.75;102161.88;10531670;28;20066;-72
2022/03/09 15:29:32;;;;;;;12.30;3.63;;;;;;;12.23;52.66;102176.97;10550276;27;20040;-73
2022/03/09 15:34:34;;;;;;;8.82;3.72;;;;;;;12.21;52.39;102171.66;10547523;27;20052;-72
2022/03/09 15:39:36;;;;;;;8.57;3.85;;;;;;;;;;10554049;28;20072;-72
2022/03/09 15:44:37;;;;;;;8.43;3.92;;;;;;;;;;10543306;27;20147;-72
2022/03/09 15:49:39;;;;;;;10.02;4.10;;;;;;;;;;10554949;27;20481;-72
2022/03/09 15:54:40;;;;;;;11.35;4.45;;;;;;;;;;10549139;27;20051;-72
2022/03/09 15:59:42;;;;;;;10.18;4.15;;;;;;;;;;10549710;28;20052;-72
2022/03/09 16:04:43;;;;;;;8.95;3.85;;;;;;;;;;10523678;28;20050;-72
2022/03/09 16:09:44;;;;;;;13.05;4.28;;;;;;;;;;10551516;28;20058;-72
2022/03/09 16:14:46;;;;;;;11.25;4.30;;;;;;;;;;10523342;27;20076;-72
2022/03/09 16:19:48;;;;;;;8.65;3.88;;;;;;;;;;10565141;28;20081;-72
2022/03/09 16:24:51;;;;;;;9.25;4.13;;;;;;;;;;10543751;27;20051;-73
2022/03/09 16:29:53;;;;;;;8.65;3.83;;;;;;;;;;10568276;27;20537;-72
2022/03/09 16:34:55;;;;;;;8.48;4.05;;;;;;;;;;10555419;27;20062;-72
2022/03/09 16:39:56;;;;;;;8.68;4.40;;;;;;;;;;10558405;27;20135;-72
2022/03/09 16:44:58;;;;;;;15.73;5.50;;;;;;;;;;10541475;28;20120;-72
2022/03/09 16:49:59;;;;;;;9.68;4.57;;;;;;;;;;10535264;28;20044;-72
2022/03/09 16:55:01;;;;;;;10.05;3.88;;;;;;;;;;10537321;28;20048;-72
2022/03/09 17:00:04;;;;;;;10.63;3.97;;;;;;;;;;10516512;28;20048;-75
2022/03/09 17:05:06;;;;;;;11.05;4.22;;;;;;;;;;10517617;28;20119;-73
2022/03/09 17:10:07;;;;;;;10.82;4.18;;;;;;;;;;10500655;28;20052;-72
2022/03/09 17:15:09;;;;;;;9.75;4.47;;;;;;;;;;10495090;28;20043;-72
2022/03/09 17:20:11;;;;;;;12.82;5.05;;;;;;;;;;10510347;28;20055;-72
2022/03/09 17:25:12;;;;;;;13.23;5.10;;;;;;;;;;10508706;28;20124;-72
2022/03/09 17:30:14;;;;;;;13.77;5.95;;;;;;;;;;10522407;28;20412;-72
2022/03/09 17:35:15;;;;;;;11.68;4.18;;;;;;;;;;10496991;28;20102;-72
2022/03/09 17:40:20;;;;;;;11.70;4.82;;;;;;;;;;10496972;28;20414;-70
2022/03/09 17:45:27;;;;;;;9.43;4.60;;;;;;;;;;10492641;28;20041;-72
2022/03/09 17:50:28;;;;;;;9.13;4.35;;;;;;;;;;10482380;28;20097;-72
2022/03/09 17:55:29;;;;;;;11.23;4.40;;;;;;;;;;10514751;28;20128;-72
2022/03/09 18:00:31;;;;;;;11.32;5.20;;;;;;;;;;10496035;28;20040;-72
2022/03/09 18:05:33;;;;;;;10.15;4.97;;;;;;;;;;10511612;28;20080;-72
2022/03/09 18:10:34;;;;;;;14.35;5.43;;;;;;;;;;10519489;28;20637;-72
2022/03/09 18:15:42;;;;;;;11.77;4.55;;;;;;;;;;10520126;28;20055;-72
2022/03/09 18:20:43;;;;;;;12.43;5.32;;;;;;;;;;10512146;28;20068;-72
2022/03/09 18:25:45;;;;;;;13.90;5.80;;;;;;;;;;10508671;28;20048;-72
2022/03/09 18:30:46;;;;;;;10.50;5.40;;;;;;;;;;10497511;28;20054;-71
2022/03/09 18:35:47;;;;;;;13.68;6.82;;;;;;;;;;10500525;28;20044;-72
2022/03/09 18:40:50;;;;;;;13.85;6.43;;;;;;;;;;10499462;28;20040;-72
2022/03/09 18:45:51;;;;;;;16.90;7.70;;;;;;;;;;10512360;28;20115;-71
2022/03/09 18:50:53;;;;;;;14.80;6.97;;;;;;;;;;10519977;28;20423;-72
2022/03/09 18:55:54;;;;;;;17.13;7.30;;;;;;;;;;10519150;28;20098;-72
2022/03/09 19:00:56;;;;;;;16.10;6.60;;;;;;;;;;10520238;28;20060;-70
2022/03/09 19:05:57;;;;;;;17.58;7.15;;;;;;;;;;10503611;28;20063;-72
2022/03/09 19:10:59;;;;;;;12.88;5.93;;;;;;;;;;10507870;28;20055;-72
2022/03/09 19:16:00;;;;;;;14.10;6.30;;;;;;;;;;10517769;28;20055;-71
2022/03/09 19:21:02;;;;;;;10.27;4.72;;;;;;;;;;10520736;28;20044;-71
2022/03/09 19:26:03;;;;;;;15.80;6.20;;;;;;;;;;10518431;28;20048;-71
2022/03/09 19:31:05;;;;;;;14.65;5.97;;;;;;;;;;10518861;28;20055;-71
2022/03/09 19:36:06;;;;;;;16.48;5.75;;;;;;;;;;10518797;28;20052;-71
2022/03/09 19:41:08;;;;;;;13.75;6.43;;;;;;;;;;10519659;28;20048;-72
2022/03/09 19:46:09;;;;;;;13.60;5.85;;;;;;;;;;10519990;28;20044;-71
2022/03/09 19:51:11;;;;;;;14.45;5.63;;;;;;;;;;10519480;28;20502;-71
2022/03/09 19:56:12;;;;;;;14.57;6.63;;;;;;;;;;10509545;28;20040;-71
2022/03/09 20:01:14;;;;;;;13.88;6.55;;;;;;;;;;10519707;28;20051;-69
2022/03/09 20:06:15;;;;;;;22.48;7.72;;;;;;;;;;10507517;28;20612;-71
2022/03/09 20:11:17;;;;;;;20.13;8.35;;;;;;;;;;10526287;28;20052;-71
2022/03/09 20:16:21;;;;;;;18.73;8.48;;;;;;;;;;10522600;28;20090;-71
2022/03/09 20:21:22;;;;;;;25.15;9.32;;;;;;;;;;10523386;28;20052;-71
2022/03/09 20:26:24;;;;;;;21.65;9.20;;;;;;;;;;10486346;28;20044;-71
2022/03/09 20:31:25;;;;;;;20.42;8.68;;;;;;;;;;10485925;28;20048;-71
2022/03/09 20:36:27;;;;;;;16.77;7.28;;;;;;;;;;10489140;28;20040;-70
2022/03/09 20:41:28;;;;;;;15.85;7.25;;;;;;;;;;10524391;28;20058;-71
2022/03/09 20:46:30;;;;;;;23.08;9.20;;;;;;;;;;10501122;28;20055;-71
2022/03/09 20:51:33;;;;;;;16.73;7.47;;;;;;;;;;10513629;28;20071;-71
2022/03/09 20:56:35;;;;;;;14.13;6.50;;;;;;;;;;10522927;28;20054;-71
2022/03/09 21:01:36;;;;;;;17.10;7.05;;;;;;;;;;10483189;28;20415;-71
2022/03/09 21:06:41;;;;;;;20.70;7.45;;;;;;;;;;10512109;28;20056;-71
2022/03/09 21:11:42;;;;;;;21.08;8.88;;;;;;;;;;10520183;28;20045;-71
2022/03/09 21:16:44;;;;;;;22.42;8.52;;;;;;;;;;10490869;28;20040;-71
2022/03/09 21:21:48;;;;;;;19.52;8.65;;;;;;;;;;10520774;28;20048;-70
2022/03/09 21:26:49;;;;;;;25.05;10.35;;;;;;;;;;10510553;28;20051;-71
2022/03/09 21:31:51;;;;;;;26.77;9.07;;;;;;;;;;10502752;28;20032;-71
2022/03/09 21:36:53;;;;;;;20.77;9.02;;;;;;;;;;10483355;28;20040;-70
2022/03/09 21:41:55;;;;;;;21.55;9.55;;;;;;;;;;10503916;28;20498;-70
2022/03/09 21:46:56;;;;;;;18.88;9.13;;;;;;;;;;10500571;28;20582;-71
2022/03/09 21:51:57;;;;;;;21.33;8.43;;;;;;;;;;10511779;28;20514;-71
2022/03/09 21:56:59;;;;;;;22.48;8.85;;;;;;;;;;10511754;28;20459;-70
2022/03/09 22:02:01;;;;;;;20.02;8.93;;;;;;;;;;10487797;28;20056;-71
2022/03/09 22:07:03;;;;;;;19.60;8.65;;;;;;;;;;10523350;28;20040;-70
2022/03/09 22:12:05;;;;;;;17.75;8.38;;;;;;;;;;10521820;28;20414;-70
2022/03/09 22:17:07;;;;;;;15.63;7.60;;;;;;;;;;10489315;28;20419;-70
2022/03/09 22:22:08;;;;;;;23.60;7.93;;;;;;;;;;10482877;28;20127;-70
2022/03/09 22:27:10;;;;;;;27.63;9.60;;;;;;;;;;10482893;28;20447;-70
2022/03/09 22:32:12;;;;;;;22.08;8.13;;;;;;;;;;10485225;28;20491;-70
2022/03/09 22:37:13;;;;;;;22.17;7.28;;;;;;;;;;10504730;28;20066;-70
2022/03/09 22:42:21;;;;;;;17.23;7.72;;;;;;;;;;10514329;28;20091;-71
2022/03/09 22:47:23;;;;;;;16.35;6.28;;;;;;;;;;10495846;28;20044;-70
2022/03/09 22:52:24;;;;;;;11.98;6.50;;;;;;;;;;10493675;28;20499;-70
2022/03/09 22:57:25;;;;;;;14.70;6.70;;;;;;;;;;10517065;28;20051;-70
2022/03/09 23:02:27;;;;;;;12.23;5.65;;;;;;;;;;10520993;28;20507;-70
2022/03/09 23:07:28;;;;;;;21.85;6.97;;;;;;;;;;10505344;28;20084;-70
2022/03/09 23:12:30;;;;;;;17.45;6.93;;;;;;;;;;10480745;28;20123;-70
2022/03/09 23:17:31;;;;;;;14.50;6.45;;;;;;;;;;10514348;28;20225;-70
2022/03/09 23:22:33;;;;;;;18.08;6.50;;;;;;;;;;10483297;28;20403;-70
2022/03/09 23:27:35;;;;;;;14.35;6.55;;;;;;;;;;10530652;28;20553;-70
2022/03/09 23:32:36;;;;;;;17.67;7.55;;;;;;;;;;10512011;28;20044;-70
2022/03/09 23:37:38;;;;;;;15.52;6.15;;;;;;;;;;10528139;28;20044;-70
2022/03/09 23:42:40;;;;;;;18.02;6.72;;;;;;;;;;10515522;28;20044;-70
2022/03/09 23:47:41;;;;;;;19.80;6.07;;;;;;;;;;10502062;28;20052;-70
2022/03/09 23:52:43;;;;;;;15.35;6.22;;;;;;;;;;10486209;28;20509;-70
2022/03/09 23:57:44;;;;;;;14.85;7.10;;;;;;;;;;10488142;28;20860;-71
